createdAt,value
2022-12-01T00:01:14.894Z,15.43
2022-12-01T00:03:41.539Z,17.85
2022-12-01T00:06:12.845Z,17.80
2022-12-01T00:08:39.479Z,16.50
2022-12-01T00:11:12.276Z,17.00
2022-12-01T00:13:38.936Z,16.20
2022-12-01T00:16:16.891Z,18.13
2022-12-01T00:18:44.393Z,16.95
2022-12-01T00:21:18.482Z,16.27
2022-12-01T00:23:50.230Z,16.67
2022-12-01T00:26:17.895Z,16.20
2022-12-01T00:28:49.900Z,16.63
2022-12-01T00:31:16.513Z,17.95
2022-12-01T00:33:43.485Z,17.05
2022-12-01T00:36:10.146Z,16.40
2022-12-01T00:38:36.953Z,14.02
2022-12-01T00:41:04.286Z,14.15
2022-12-01T00:43:31.222Z,17.42
2022-12-01T00:45:58.312Z,18.25
2022-12-01T00:48:25.066Z,17.10
2022-12-01T00:50:53.539Z,19.92
2022-12-01T00:53:21.059Z,20.30
2022-12-01T00:55:47.730Z,20.00
2022-12-01T00:58:14.512Z,20.17
2022-12-01T01:00:43.003Z,18.52
2022-12-01T01:03:10.578Z,19.92
2022-12-01T01:05:41.847Z,19.42
2022-12-01T01:08:10.310Z,18.95
2022-12-01T01:10:45.585Z,16.08
2022-12-01T01:13:13.411Z,18.48
2022-12-01T01:15:40.321Z,16.48
2022-12-01T01:18:07.237Z,19.25
2022-12-01T01:20:34.348Z,18.40
2022-12-01T01:23:00.841Z,20.08
2022-12-01T01:25:27.626Z,17.75
2022-12-01T01:27:54.322Z,19.98
2022-12-01T01:30:21.067Z,18.40
2022-12-01T01:32:47.970Z,19.25
2022-12-01T01:35:14.695Z,17.70
2022-12-01T01:37:41.392Z,17.65
2022-12-01T01:40:08.639Z,20.77
2022-12-01T01:42:35.372Z,19.83
2022-12-01T01:45:02.001Z,20.30
2022-12-01T01:47:38.348Z,17.13
2022-12-01T01:50:09.643Z,18.90
2022-12-01T01:52:43.250Z,16.55
2022-12-01T01:55:10.208Z,18.15
2022-12-01T01:57:38.183Z,16.85
2022-12-01T02:00:09.856Z,20.08
2022-12-01T02:02:40.667Z,17.05
2022-12-01T02:05:11.192Z,17.60
2022-12-01T02:07:39.588Z,20.30
2022-12-01T02:10:09.201Z,18.08
2022-12-01T02:13:10.148Z,17.48
2022-12-01T02:15:53.997Z,20.65
2022-12-01T02:18:20.512Z,21.17
2022-12-01T02:21:08.780Z,19.42
2022-12-01T02:24:08.402Z,19.27
2022-12-01T02:26:35.018Z,19.77
2022-12-01T02:29:24.835Z,18.60
2022-12-01T02:32:07.102Z,17.33
2022-12-01T02:34:44.556Z,21.13
2022-12-01T02:37:24.135Z,18.88
2022-12-01T02:39:54.425Z,18.10
2022-12-01T02:42:53.828Z,19.10
2022-12-01T02:45:33.438Z,17.10
2022-12-01T02:48:03.220Z,16.52
2022-12-01T02:50:33.660Z,18.67
2022-12-01T02:53:03.255Z,19.02
2022-12-01T02:55:30.028Z,17.33
2022-12-01T02:57:56.567Z,17.90
2022-12-01T03:00:23.427Z,18.77
2022-12-01T03:03:22.432Z,18.95
2022-12-01T03:05:59.776Z,15.68
2022-12-01T03:08:52.307Z,18.10
2022-12-01T03:11:29.201Z,18.45
2022-12-01T03:16:54.467Z,17.10
2022-12-01T03:19:47.427Z,15.52
2022-12-01T03:22:16.789Z,17.05
2022-12-01T03:24:48.018Z,18.67
2022-12-01T03:27:18.612Z,19.08
2022-12-01T03:29:49.847Z,19.50
2022-12-01T03:32:38.546Z,19.73
2022-12-01T03:35:11.078Z,19.40
2022-12-01T03:37:37.696Z,20.75
2022-12-01T03:40:08.179Z,17.42
2022-12-01T03:42:46.224Z,18.38
2022-12-01T03:45:20.067Z,17.30
2022-12-01T03:47:47.051Z,16.67
2022-12-01T03:50:14.535Z,17.83
2022-12-01T03:53:19.446Z,16.60
2022-12-01T03:55:52.352Z,17.25
2022-12-01T03:58:23.686Z,19.80
2022-12-01T04:00:53.384Z,17.33
2022-12-01T04:03:25.031Z,18.08
2022-12-01T04:05:52.809Z,17.83
2022-12-01T04:08:19.367Z,18.15
2022-12-01T04:10:46.294Z,19.23
2022-12-01T04:13:22.478Z,18.80
2022-12-01T04:15:50.724Z,19.33
2022-12-01T04:18:18.379Z,19.77
2022-12-01T04:20:51.019Z,17.63
2022-12-01T04:23:36.250Z,20.65
2022-12-01T04:26:04.655Z,17.90
2022-12-01T04:28:31.584Z,18.77
2022-12-01T04:30:58.275Z,20.48
2022-12-01T04:33:26.004Z,22.08
2022-12-01T04:36:00.047Z,21.63
2022-12-01T04:38:30.494Z,21.58
2022-12-01T04:40:57.625Z,21.58
2022-12-01T04:43:24.211Z,19.98
2022-12-01T04:45:51.037Z,20.15
2022-12-01T04:48:17.596Z,24.73
2022-12-01T04:50:46.133Z,21.83
2022-12-01T04:53:12.704Z,21.10
2022-12-01T04:55:39.532Z,21.92
2022-12-01T04:58:06.906Z,19.73
2022-12-01T05:00:33.965Z,20.52
2022-12-01T05:03:00.997Z,21.83
2022-12-01T05:05:27.764Z,20.35
2022-12-01T05:07:54.479Z,19.83
2022-12-01T05:10:21.842Z,20.67
2022-12-01T05:12:48.646Z,22.35
2022-12-01T05:15:15.770Z,21.02
2022-12-01T05:17:44.213Z,21.73
2022-12-01T05:20:56.352Z,22.52
2022-12-01T05:23:27.575Z,20.52
2022-12-01T05:25:54.910Z,19.67
2022-12-01T05:28:23.108Z,22.30
2022-12-01T05:30:50.573Z,21.23
2022-12-01T05:33:17.468Z,23.83
2022-12-01T05:35:44.780Z,20.67
2022-12-01T05:38:11.330Z,21.25
2022-12-01T05:40:38.333Z,22.08
2022-12-01T05:43:05.703Z,22.13
2022-12-01T05:45:33.330Z,23.58
2022-12-01T05:48:01.746Z,21.70
2022-12-01T05:50:30.217Z,21.58
2022-12-01T05:52:56.888Z,19.75
2022-12-01T05:55:23.755Z,20.88
2022-12-01T05:57:50.438Z,21.15
2022-12-01T06:00:18.616Z,21.92
2022-12-01T06:02:45.738Z,23.40
2022-12-01T06:05:12.402Z,22.10
2022-12-01T06:07:40.431Z,23.88
2022-12-01T06:10:09.350Z,21.00
2022-12-01T06:12:37.115Z,19.02
2022-12-01T06:15:05.020Z,21.58
2022-12-01T06:17:34.628Z,23.40
2022-12-01T06:20:06.359Z,22.50
2022-12-01T06:22:32.976Z,22.60
2022-12-01T06:24:59.596Z,21.08
2022-12-01T06:27:26.271Z,22.48
2022-12-01T06:29:53.238Z,21.95
2022-12-01T06:32:20.264Z,22.83
2022-12-01T06:34:46.849Z,20.88
2022-12-01T06:37:15.655Z,22.55
2022-12-01T06:39:43.184Z,22.73
2022-12-01T06:42:10.034Z,24.42
2022-12-01T06:44:36.614Z,23.67
2022-12-01T06:47:04.409Z,20.75
2022-12-01T06:49:31.052Z,23.33
2022-12-01T06:51:58.583Z,20.38
2022-12-01T06:54:27.448Z,20.88
2022-12-01T06:56:54.355Z,21.75
2022-12-01T06:59:21.391Z,22.65
2022-12-01T07:01:48.535Z,23.02
2022-12-01T07:04:15.379Z,23.48
2022-12-01T07:06:41.996Z,18.30
2022-12-01T07:09:08.684Z,17.75
2022-12-01T07:11:36.557Z,21.08
2022-12-01T07:14:03.679Z,21.90
2022-12-01T07:16:30.539Z,21.02
2022-12-01T07:18:58.409Z,21.58
2022-12-01T07:21:24.952Z,21.40
2022-12-01T07:23:52.583Z,22.08
2022-12-01T07:26:19.205Z,22.05
2022-12-01T07:28:46.394Z,22.38
2022-12-01T07:31:18.966Z,19.08
2022-12-01T07:33:46.008Z,19.20
2022-12-01T07:36:13.853Z,22.10
2022-12-01T07:38:41.217Z,20.73
2022-12-01T07:41:10.541Z,21.92
2022-12-01T07:43:37.280Z,22.10
2022-12-01T07:46:06.509Z,19.38
2022-12-01T07:48:33.242Z,17.85
2022-12-01T07:51:00.144Z,21.38
2022-12-01T07:53:26.999Z,19.80
2022-12-01T07:55:53.674Z,20.75
2022-12-01T07:58:20.470Z,23.75
2022-12-01T08:00:47.035Z,21.55
2022-12-01T08:03:14.753Z,21.73
2022-12-01T08:05:41.712Z,21.80
2022-12-01T08:08:08.419Z,21.38
2022-12-01T08:10:35.602Z,19.27
2022-12-01T08:13:02.347Z,19.67
2022-12-01T08:15:29.110Z,18.48
2022-12-01T08:17:55.882Z,18.52
2022-12-01T08:20:24.180Z,20.48
2022-12-01T08:22:50.853Z,18.88
2022-12-01T08:25:17.480Z,19.75
2022-12-01T08:27:44.445Z,19.17
2022-12-01T08:30:11.475Z,20.98
2022-12-01T08:32:39.288Z,20.90
2022-12-01T08:35:06.343Z,22.38
2022-12-01T08:37:33.031Z,20.77
2022-12-01T08:39:59.873Z,21.10
2022-12-01T08:42:26.479Z,21.25
2022-12-01T08:44:53.155Z,18.10
2022-12-01T08:47:19.881Z,17.45
2022-12-01T08:49:46.860Z,22.48
2022-12-01T08:52:13.881Z,21.25
2022-12-01T08:54:40.734Z,20.73
2022-12-01T08:57:07.641Z,19.40
2022-12-01T08:59:34.372Z,18.23
2022-12-01T09:02:05.475Z,20.17
2022-12-01T09:04:33.609Z,21.00
2022-12-01T09:07:00.622Z,18.42
2022-12-01T09:09:29.045Z,20.48
2022-12-01T09:11:55.998Z,20.73
2022-12-01T09:14:23.488Z,19.98
2022-12-01T09:16:50.986Z,18.45
2022-12-01T09:19:24.149Z,20.60
2022-12-01T09:21:51.817Z,18.60
2022-12-01T09:24:18.535Z,18.85
2022-12-01T09:26:45.387Z,20.40
2022-12-01T09:29:14.896Z,21.13
2022-12-01T09:31:42.815Z,21.55
2022-12-01T09:34:15.959Z,20.95
2022-12-01T09:36:42.780Z,21.23
2022-12-01T09:39:13.529Z,20.65
2022-12-01T09:41:46.068Z,19.48
2022-12-01T09:44:21.868Z,21.42
2022-12-01T09:47:06.159Z,18.20
2022-12-01T09:50:02.539Z,19.30
2022-12-01T09:52:34.363Z,20.65
2022-12-01T09:55:01.715Z,20.65
2022-12-01T09:57:35.399Z,18.90
2022-12-01T10:00:06.687Z,21.63
2022-12-01T10:02:42.451Z,18.38
2022-12-01T10:05:20.105Z,18.67
2022-12-01T10:07:59.530Z,21.80
2022-12-01T10:10:33.332Z,19.23
2022-12-01T10:13:00.647Z,19.65
2022-12-01T10:15:34.596Z,19.63
2022-12-01T10:18:26.196Z,21.05
2022-12-01T10:21:20.307Z,17.40
2022-12-01T10:24:28.587Z,20.05
2022-12-01T10:27:30.265Z,21.83
2022-12-01T10:29:56.990Z,18.95
2022-12-01T10:32:32.755Z,16.98
2022-12-01T10:34:59.516Z,19.15
2022-12-01T10:37:28.949Z,18.88
2022-12-01T10:39:57.972Z,20.13
2022-12-01T10:42:29.570Z,21.02
2022-12-01T10:45:00.101Z,20.83
2022-12-01T10:47:28.938Z,20.75
2022-12-01T10:49:56.236Z,21.92
2022-12-01T10:52:36.181Z,20.67
2022-12-01T10:55:24.137Z,22.13
2022-12-01T10:57:52.360Z,21.08
2022-12-01T11:00:58.449Z,20.23
2022-12-01T11:03:28.826Z,19.33
2022-12-01T11:06:01.372Z,19.65
2022-12-01T11:08:39.100Z,20.77
2022-12-01T11:11:06.723Z,19.73
2022-12-01T11:13:37.090Z,22.33
2022-12-01T11:16:06.516Z,18.65
2022-12-01T11:18:38.559Z,21.83
2022-12-01T11:21:14.941Z,21.17
2022-12-01T11:23:45.879Z,19.95
2022-12-01T11:26:16.520Z,21.95
2022-12-01T11:29:09.455Z,20.20
2022-12-01T11:31:45.721Z,15.05
2022-12-01T11:34:34.637Z,20.90
2022-12-01T11:37:04.355Z,19.65
2022-12-01T11:39:39.035Z,21.80
2022-12-01T11:42:11.720Z,21.67
2022-12-01T11:44:54.017Z,19.95
2022-12-01T11:47:25.127Z,20.25
2022-12-01T11:49:58.163Z,20.25
2022-12-01T11:52:31.815Z,21.58
2022-12-01T11:55:22.900Z,21.73
2022-12-01T11:57:53.257Z,19.17
2022-12-01T12:00:21.401Z,22.40
2022-12-01T12:02:50.902Z,19.52
2022-12-01T12:05:39.005Z,20.92
2022-12-01T12:08:38.531Z,18.13
2022-12-01T12:11:10.934Z,20.60
2022-12-01T12:14:03.875Z,19.40
2022-12-01T12:16:56.750Z,20.38
2022-12-01T12:20:09.664Z,20.77
2022-12-01T12:22:36.557Z,19.90
2022-12-01T12:25:16.091Z,21.52
2022-12-01T12:28:06.513Z,19.85
2022-12-01T12:30:43.019Z,19.45
2022-12-01T12:33:40.482Z,19.35
2022-12-01T12:36:28.336Z,19.85
2022-12-01T12:39:20.466Z,23.20
2022-12-01T12:41:51.858Z,19.80
2022-12-01T12:44:37.384Z,20.35
2022-12-01T12:47:36.531Z,20.35
2022-12-01T12:50:15.100Z,26.48
2022-12-01T12:53:05.848Z,18.25
2022-12-01T12:55:42.672Z,18.23
2022-12-01T13:00:52.086Z,15.70
2022-12-01T13:03:37.244Z,16.55
2022-12-01T13:06:10.187Z,17.25
2022-12-01T13:08:36.765Z,15.57
2022-12-01T13:11:10.532Z,15.63
2022-12-01T13:13:53.390Z,17.33
2022-12-01T13:16:26.837Z,13.13
2022-12-01T13:19:04.981Z,12.95
2022-12-01T13:21:44.723Z,13.55
2022-12-01T13:24:21.332Z,14.18
2022-12-01T13:27:14.461Z,15.93
2022-12-01T13:29:47.063Z,14.95
2022-12-01T13:32:31.743Z,14.95
2022-12-01T13:34:59.392Z,13.40
2022-12-01T13:37:35.039Z,15.45
2022-12-01T13:40:23.777Z,14.05
2022-12-01T13:43:10.447Z,13.20
2022-12-01T13:45:40.165Z,12.80
2022-12-01T13:48:27.437Z,12.38
2022-12-01T13:51:01.092Z,13.32
2022-12-01T13:53:38.500Z,13.63
2022-12-01T13:56:17.571Z,12.40
2022-12-01T13:58:52.755Z,13.73
2022-12-01T14:01:22.899Z,14.52
2022-12-01T14:04:38.308Z,15.70
2022-12-01T14:07:21.414Z,14.82
2022-12-01T14:09:51.530Z,14.75
2022-12-01T14:12:26.593Z,12.93
2022-12-01T14:14:59.062Z,12.60
2022-12-01T14:17:35.864Z,12.70
2022-12-01T14:20:21.722Z,13.48
2022-12-01T14:23:13.898Z,12.93
2022-12-01T14:25:42.323Z,14.95
2022-12-01T14:28:19.473Z,14.98
2022-12-01T14:30:46.204Z,15.40
2022-12-01T14:33:51.237Z,17.88
2022-12-01T14:36:23.833Z,16.40
2022-12-01T14:38:59.555Z,19.45
2022-12-01T14:41:52.957Z,17.17
2022-12-01T14:44:33.525Z,16.88
2022-12-01T14:47:11.418Z,19.75
2022-12-01T14:49:51.012Z,19.50
2022-12-01T14:52:32.632Z,18.85
2022-12-01T14:55:01.987Z,19.17
2022-12-01T14:57:34.275Z,19.27
2022-12-01T15:00:22.638Z,25.70
2022-12-01T15:02:56.617Z,22.52
2022-12-01T15:05:27.384Z,24.95
2022-12-01T15:08:40.191Z,23.73
2022-12-01T15:11:07.893Z,23.65
2022-12-01T15:14:22.054Z,23.58
2022-12-01T15:16:50.178Z,21.52
2022-12-01T15:19:40.270Z,20.70
2022-12-01T15:22:13.869Z,21.08
2022-12-01T15:24:41.672Z,21.50
2022-12-01T15:27:29.474Z,20.63
2022-12-01T15:29:58.637Z,19.65
2022-12-01T15:32:27.142Z,21.33
2022-12-01T15:34:55.842Z,22.23
2022-12-01T15:37:26.459Z,20.00
2022-12-01T15:40:11.971Z,19.70
2022-12-01T15:42:43.947Z,22.42
2022-12-01T15:45:22.584Z,20.55
2022-12-01T15:47:52.982Z,19.25
2022-12-01T15:50:42.745Z,19.92
2022-12-01T15:53:24.085Z,20.33
2022-12-01T15:55:57.104Z,21.83
2022-12-01T15:58:30.349Z,20.85
2022-12-01T16:01:05.589Z,22.38
2022-12-01T16:03:48.224Z,25.23
2022-12-01T16:06:14.980Z,25.35
2022-12-01T16:08:42.074Z,23.08
2022-12-01T16:11:18.056Z,22.38
2022-12-01T16:14:05.477Z,25.17
2022-12-01T16:19:03.832Z,24.70
2022-12-01T16:21:51.734Z,25.10
2022-12-01T16:24:23.369Z,26.08
2022-12-01T16:26:51.805Z,25.65
2022-12-01T16:29:23.982Z,26.40
2022-12-01T16:32:18.912Z,26.75
2022-12-01T16:34:46.165Z,25.85
2022-12-01T16:37:14.143Z,24.27
2022-12-01T16:39:40.944Z,28.88
2022-12-01T16:42:12.439Z,28.17
2022-12-01T16:44:39.193Z,29.27
2022-12-01T16:47:26.019Z,28.27
2022-12-01T16:49:53.059Z,26.75
2022-12-01T16:55:22.826Z,24.73
2022-12-01T16:57:49.421Z,26.85
2022-12-01T17:00:16.399Z,28.95
2022-12-01T17:02:43.028Z,27.25
2022-12-01T17:05:11.484Z,27.40
2022-12-01T17:07:38.242Z,27.73
2022-12-01T17:10:06.449Z,27.45
2022-12-01T17:12:33.148Z,28.88
2022-12-01T17:15:00.076Z,26.50
2022-12-01T17:17:28.476Z,29.05
2022-12-01T17:19:55.360Z,26.10
2022-12-01T17:22:22.007Z,26.98
2022-12-01T17:24:49.213Z,25.05
2022-12-01T17:27:16.195Z,27.67
2022-12-01T17:29:46.048Z,26.17
2022-12-01T17:32:13.797Z,25.77
2022-12-01T17:34:41.145Z,24.02
2022-12-01T17:37:07.996Z,27.08
2022-12-01T17:39:34.638Z,26.33
2022-12-01T17:42:01.494Z,25.02
2022-12-01T17:44:28.369Z,26.65
2022-12-01T17:46:55.116Z,25.52
2022-12-01T17:49:21.909Z,27.40
2022-12-01T17:51:48.594Z,25.95
2022-12-01T17:54:15.294Z,23.08
2022-12-01T17:56:42.794Z,24.38
2022-12-01T17:59:10.432Z,28.85
2022-12-01T18:01:37.125Z,26.30
2022-12-01T18:04:03.962Z,25.40
2022-12-01T18:06:32.690Z,26.05
2022-12-01T18:09:00.306Z,25.23
2022-12-01T18:11:27.544Z,27.33
2022-12-01T18:13:54.488Z,26.35
2022-12-01T18:16:22.644Z,28.40
2022-12-01T18:18:50.583Z,25.27
2022-12-01T18:21:19.362Z,26.30
2022-12-01T18:23:50.997Z,23.90
2022-12-01T18:26:19.659Z,25.60
2022-12-01T18:28:46.510Z,25.23
2022-12-01T18:31:15.828Z,27.25
2022-12-01T18:33:44.280Z,27.17
2022-12-01T18:36:18.188Z,24.65
2022-12-01T18:38:47.423Z,23.48
2022-12-01T18:41:15.115Z,26.27
2022-12-01T18:43:41.704Z,23.60
2022-12-01T18:46:08.854Z,28.10
2022-12-01T18:48:35.628Z,26.30
2022-12-01T18:51:07.387Z,26.70
2022-12-01T18:53:34.851Z,26.55
2022-12-01T18:56:03.827Z,25.02
2022-12-01T18:58:31.211Z,30.60
2022-12-01T19:00:58.630Z,27.42
2022-12-01T19:03:25.461Z,24.63
2022-12-01T19:05:52.097Z,26.85
2022-12-01T19:08:18.962Z,27.30
2022-12-01T19:10:45.678Z,28.95
2022-12-01T19:13:12.278Z,27.85
2022-12-01T19:15:38.957Z,28.42
2022-12-01T19:18:05.678Z,27.67
2022-12-01T19:20:32.284Z,29.13
2022-12-01T19:22:59.530Z,27.48
2022-12-01T19:25:26.215Z,26.85
2022-12-01T19:27:53.972Z,25.98
2022-12-01T19:30:20.560Z,25.83
2022-12-01T19:32:47.472Z,27.23
2022-12-01T19:35:14.029Z,25.48
2022-12-01T19:37:40.686Z,26.73
2022-12-01T19:40:08.116Z,21.45
2022-12-01T19:42:34.740Z,23.15
2022-12-01T19:45:02.735Z,24.48
2022-12-01T19:47:33.489Z,23.90
2022-12-01T19:50:00.293Z,26.27
2022-12-01T19:52:28.569Z,25.98
2022-12-01T19:54:55.543Z,26.08
2022-12-01T19:57:22.101Z,27.73
2022-12-01T19:59:48.644Z,25.52
2022-12-01T20:02:16.435Z,24.38
2022-12-01T20:04:43.054Z,28.08
2022-12-01T20:07:09.626Z,24.27
2022-12-01T20:09:36.416Z,24.20
2022-12-01T20:12:03.282Z,24.45
2022-12-01T20:14:29.981Z,24.42
2022-12-01T20:16:56.690Z,21.10
2022-12-01T20:19:23.340Z,17.83
2022-12-01T20:21:49.985Z,23.92
2022-12-01T20:24:19.887Z,24.02
2022-12-01T20:26:49.347Z,23.63
2022-12-01T20:29:19.614Z,20.13
2022-12-01T20:31:47.268Z,23.55
2022-12-01T20:34:18.539Z,23.50
2022-12-01T20:36:46.082Z,22.35
2022-12-01T20:39:13.591Z,24.02
2022-12-01T20:41:42.066Z,22.27
2022-12-01T20:44:09.249Z,23.70
2022-12-01T20:46:37.393Z,22.85
2022-12-01T20:49:05.629Z,22.30
2022-12-01T20:51:33.532Z,20.73
2022-12-01T20:54:26.812Z,22.05
2022-12-01T20:56:48.639Z,21.95
2022-12-01T20:59:15.394Z,20.75
2022-12-01T21:01:42.116Z,22.15
2022-12-01T21:04:08.811Z,22.85
2022-12-01T21:06:35.588Z,22.10
2022-12-01T21:09:03.919Z,20.67
2022-12-01T21:11:55.747Z,19.98
2022-12-01T21:14:28.222Z,21.40
2022-12-01T21:16:59.012Z,22.40
2022-12-01T21:19:52.422Z,22.10
2022-12-01T21:22:20.156Z,20.40
2022-12-01T21:24:51.068Z,19.42
2022-12-01T21:27:18.368Z,20.65
2022-12-01T21:29:49.431Z,19.52
2022-12-01T21:32:17.700Z,18.52
2022-12-01T21:34:46.944Z,20.88
2022-12-01T21:37:22.400Z,19.92
2022-12-01T21:39:51.019Z,20.98
2022-12-01T21:42:25.064Z,19.67
2022-12-01T21:44:52.531Z,20.52
2022-12-01T21:47:21.889Z,21.33
2022-12-01T21:49:54.557Z,20.92
2022-12-01T21:52:48.049Z,19.02
2022-12-01T21:55:14.805Z,20.15
2022-12-01T21:57:44.729Z,20.48
2022-12-01T22:00:37.031Z,20.58
2022-12-01T22:03:09.736Z,19.95
2022-12-01T22:05:42.898Z,18.40
2022-12-01T22:08:12.763Z,20.85
2022-12-01T22:11:02.278Z,19.75
2022-12-01T22:13:59.788Z,18.88
2022-12-01T22:16:26.399Z,15.90
2022-12-01T22:18:56.017Z,16.25
2022-12-01T22:21:22.630Z,17.75
2022-12-01T22:23:57.525Z,17.17
2022-12-01T22:26:25.376Z,18.05
2022-12-01T22:28:55.706Z,19.05
2022-12-01T22:31:23.327Z,19.33
2022-12-01T22:34:03.518Z,18.90
2022-12-01T22:36:31.890Z,16.75
2022-12-01T22:38:58.927Z,16.42
2022-12-01T22:41:26.939Z,18.05
2022-12-01T22:43:59.723Z,18.52
2022-12-01T22:46:35.443Z,18.27
2022-12-01T22:49:19.468Z,19.33
2022-12-01T22:51:47.991Z,18.83
2022-12-01T22:54:14.570Z,19.02
2022-12-01T22:56:43.764Z,17.40
2022-12-01T22:59:21.831Z,18.02
2022-12-01T23:02:00.818Z,19.08
2022-12-01T23:04:39.965Z,16.90
2022-12-01T23:07:15.501Z,18.02
2022-12-01T23:09:44.419Z,14.73
2022-12-01T23:12:10.979Z,18.30
2022-12-01T23:14:43.738Z,16.70
2022-12-01T23:17:21.255Z,17.95
2022-12-01T23:19:50.259Z,18.13
2022-12-01T23:22:17.694Z,16.35
2022-12-01T23:24:45.132Z,15.55
2022-12-01T23:27:11.907Z,14.90
2022-12-01T23:29:38.613Z,15.25
2022-12-01T23:32:05.437Z,15.30
2022-12-01T23:34:33.807Z,14.48
2022-12-01T23:37:00.940Z,13.48
2022-12-01T23:39:35.261Z,12.90
2022-12-01T23:42:02.836Z,13.90
2022-12-01T23:44:35.254Z,15.43
2022-12-01T23:47:01.920Z,15.20
2022-12-01T23:49:38.671Z,15.95
2022-12-01T23:52:10.902Z,13.73
2022-12-01T23:54:38.776Z,15.65
2022-12-01T23:57:19.631Z,16.65
2022-12-01T23:59:46.432Z,15.45
